This is the latest recevied weather packets stored in our database for station/object ANJALA. If no packets are shown the sender has not sent any weather packets the latest 10 day(s).
| Time | Temp. | Humidity | Pressure | Rain* | Wind** | Luminosity | Snow |
|---|---|---|---|---|---|---|---|
| 1777549611 | 10.56° C | 64% | - | 0 mm | - | - | - |
| 1777548411 | 10° C | 67% | - | 0 mm | - | - | - |
| 1777547211 | 10° C | 65% | - | 0 mm | - | - | - |
| 1777546010 | 10.56° C | 62% | - | 0 mm | - | - | - |
| 1777544811 | 8.89° C | 67% | - | 0 mm | - | - | - |
| 1777543611 | 8.33° C | 69% | - | 0 mm | - | - | - |
| 1777542410 | 7.22° C | 70% | - | 0 mm | - | - | - |
| 1777541210 | 6.11° C | 72% | - | 0 mm | - | - | - |
| 1777540010 | 6.11° C | 72% | - | 0 mm | - | - | - |
| 1777538810 | 5.56° C | 73% | - | 0 mm | - | - | - |
| 1777537610 | 5° C | 74% | - | 0 mm | - | - | - |
| 1777536410 | 5° C | 70% | - | 0 mm | - | - | - |
| 1777535210 | 5° C | 69% | - | 0 mm | - | - | - |
| 1777534010 | 4.44° C | 68% | - | 0 mm | - | - | - |
| 1777532810 | 4.44° C | 67% | - | 0 mm | - | - | - |
| 1777531610 | 3.89° C | 66% | - | 0 mm | - | - | - |
| 1777530410 | 3.89° C | 67% | - | 0 mm | - | - | - |
| 1777529210 | 3.33° C | 66% | - | 0 mm | - | - | - |
| 1777528010 | 3.33° C | 66% | - | 0 mm | - | - | - |
| 1777526810 | 2.78° C | 64% | - | 0 mm | - | - | - |
| 1777525609 | 2.22° C | 64% | - | 0 mm | - | - | - |
| 1777524409 | 1.67° C | 65% | - | 0 mm | - | - | - |
| 1777523209 | 1.67° C | 70% | - | 0 mm | - | - | - |
| 1777522010 | 1.67° C | 66% | - | 0 mm | - | - | - |
| 1777520809 | 1.11° C | 70% | - | 0 mm | - | - | - |
* Rain latest hour (hover to see other rain measurements)
** Current wind speed in m/s (hover to see current wind gust speed)